Time;durP1;ratioP1;P1;durP2;ratioP2;P2;SDS_P1;SDS_P2;PMS_P1;PMS_P2;Temp;Humidity;BMP_temperature;BMP_pressure;BME280_temperature;BME280_humidity;BME280_pressure;Samples;Min_cycle;Max_cycle;Signal;HPM_P1;HPM_P2
2021/07/25 00:01:20;;;;;;;9.50;8.35;;;589.00;2432.00;;;;;;4841494;29;20162;-70
2021/07/25 00:03:46;;;;;;;15.07;10.77;;;588.90;2432.00;;;;;;4832844;29;20026;-70
2021/07/25 00:06:18;;;;;;;13.15;9.60;;;588.90;2432.00;;;;;;4825112;29;20375;-70
2021/07/25 00:08:44;;;;;;;13.10;10.10;;;589.00;2432.00;;;;;;4827043;29;20031;-70
2021/07/25 00:11:11;;;;;;;16.40;9.63;;;588.90;2432.00;;;;;;4823950;29;20037;-70
2021/07/25 00:13:40;;;;;;;13.60;10.50;;;588.80;2432.00;;;;;;4822066;29;20029;-70
2021/07/25 00:16:07;;;;;;;13.60;10.38;;;588.80;2432.00;;;;;;4817873;29;20027;-70
2021/07/25 00:18:32;;;;;;;12.23;10.57;;;588.80;2432.00;;;;;;4822701;29;20153;-70
2021/07/25 00:20:58;;;;;;;12.13;10.48;;;588.80;2432.00;;;;;;4816455;29;20179;-70
2021/07/25 00:23:26;;;;;;;15.93;10.80;;;588.80;2432.00;;;;;;4822141;29;20570;-70
2021/07/25 00:25:53;;;;;;;13.32;11.23;;;588.80;2432.00;;;;;;4823004;29;20026;-70
2021/07/25 00:28:19;;;;;;;13.82;11.38;;;588.80;2432.00;;;;;;4816294;29;20031;-70
2021/07/25 00:30:45;;;;;;;14.93;11.82;;;564.10;2432.00;;;;;;4817169;29;20031;-70
2021/07/25 00:33:12;;;;;;;13.98;11.43;;;564.00;2432.00;;;;;;4825012;29;20513;-70
2021/07/25 00:35:38;;;;;;;15.40;11.57;;;564.00;2432.00;;;;;;4840280;29;20399;-70
2021/07/25 00:38:04;;;;;;;15.30;11.85;;;563.80;2432.00;;;;;;4840129;29;20030;-70
2021/07/25 00:40:39;;;;;;;15.75;12.85;;;563.80;2432.00;;;;;;4841134;29;20478;-70
2021/07/25 00:43:05;;;;;;;16.85;11.85;;;563.70;2432.00;;;;;;4839759;29;20052;-71
2021/07/25 00:45:31;;;;;;;13.30;11.90;;;563.60;2432.00;;;;;;4841176;29;20553;-70
2021/07/25 00:47:58;;;;;;;14.32;11.40;;;563.70;2432.00;;;;;;4840854;29;20022;-70
2021/07/25 00:50:25;;;;;;;13.90;10.75;;;563.80;2432.00;;;;;;4825134;29;20027;-70
2021/07/25 00:52:51;;;;;;;14.65;11.48;;;563.60;2432.00;;;;;;4831754;29;20026;-70
2021/07/25 00:55:19;;;;;;;14.38;11.13;;;563.60;2432.00;;;;;;4840876;29;20036;-70
2021/07/25 00:57:45;;;;;;;13.95;12.38;;;563.60;2432.00;;;;;;4840388;29;20034;-72
2021/07/25 01:00:13;;;;;;;15.35;11.63;;;563.50;2432.00;;;;;;4828726;29;20136;-70
2021/07/25 01:02:53;;;;;;;14.27;12.43;;;563.40;2432.00;;;;;;4828805;29;20026;-70
2021/07/25 01:05:29;;;;;;;13.02;11.73;;;563.30;2432.00;;;;;;4827492;29;20026;-70
2021/07/25 01:08:11;;;;;;;13.40;11.20;;;563.20;2432.00;;;;;;4810670;29;20030;-71
2021/07/25 01:10:39;;;;;;;15.90;11.98;;;563.20;2432.00;;;;;;4836782;29;20101;-70
2021/07/25 01:13:08;;;;;;;15.20;12.68;;;563.20;2432.00;;;;;;4840350;29;20026;-70
2021/07/25 01:15:35;;;;;;;17.67;12.73;;;563.20;2432.00;;;;;;4827936;29;20030;-70
2021/07/25 01:18:01;;;;;;;15.02;12.18;;;563.20;2432.00;;;;;;4838700;29;20044;-71
2021/07/25 01:20:26;;;;;;;14.55;12.13;;;563.20;2432.00;;;;;;4840703;29;20038;-70
2021/07/25 01:22:54;;;;;;;15.35;11.48;;;563.20;2432.00;;;;;;4840497;29;20026;-70
2021/07/25 01:25:23;;;;;;;14.07;12.57;;;563.20;2432.00;;;;;;4840613;29;20122;-70
2021/07/25 01:28:00;;;;;;;16.42;12.80;;;563.20;2432.00;;;;;;4827470;29;20030;-70
2021/07/25 01:30:29;;;;;;;15.15;12.52;;;563.20;2432.00;;;;;;4833389;29;20105;-70
2021/07/25 01:33:00;;;;;;;15.60;12.25;;;563.20;2432.00;;;;;;4835066;29;20482;-70
2021/07/25 01:35:27;;;;;;;15.77;13.02;;;538.50;2406.40;;;;;;4839551;29;20056;-70
2021/07/25 01:37:54;;;;;;;16.42;12.45;;;538.50;2406.40;;;;;;4841078;29;20033;-70
2021/07/25 01:40:24;;;;;;;16.98;12.05;;;563.20;2432.00;;;;;;4839042;29;20166;-70
2021/07/25 01:42:53;;;;;;;16.90;12.77;;;538.40;2406.40;;;;;;4840865;29;20037;-70
2021/07/25 01:45:19;;;;;;;17.65;12.65;;;538.40;2406.40;;;;;;4822385;29;20034;-70
2021/07/25 01:47:45;;;;;;;18.80;12.57;;;538.30;2406.40;;;;;;4830895;29;20042;-70
2021/07/25 01:50:12;;;;;;;14.50;12.85;;;538.20;2406.40;;;;;;4827704;29;20036;-70
2021/07/25 01:52:38;;;;;;;15.43;12.88;;;538.20;2406.40;;;;;;4826914;29;20066;-70
2021/07/25 01:55:05;;;;;;;19.40;12.57;;;538.20;2406.40;;;;;;4840087;29;20042;-70
2021/07/25 01:57:30;;;;;;;13.77;12.07;;;538.20;2406.40;;;;;;4840091;29;20021;-70
2021/07/25 01:59:56;;;;;;;14.70;12.63;;;538.20;2406.40;;;;;;4838970;29;20034;-70
2021/07/25 02:02:22;;;;;;;14.98;12.35;;;538.10;2406.40;;;;;;4834415;29;20041;-70
2021/07/25 02:04:48;;;;;;;14.05;12.48;;;538.00;2406.40;;;;;;4829921;29;20113;-70
2021/07/25 02:07:14;;;;;;;15.68;13.38;;;538.00;2406.40;;;;;;4826194;29;20375;-70
2021/07/25 02:09:40;;;;;;;15.27;13.55;;;537.90;2406.40;;;;;;4840346;29;20034;-70
2021/07/25 02:12:07;;;;;;;15.52;12.65;;;537.90;2406.40;;;;;;4835347;29;20026;-70
2021/07/25 02:14:34;;;;;;;15.88;13.68;;;537.90;2406.40;;;;;;4821631;29;20479;-70
2021/07/25 02:17:00;;;;;;;18.20;12.90;;;537.80;2406.40;;;;;;4821845;29;20034;-70
2021/07/25 02:19:26;;;;;;;16.90;13.10;;;537.90;2406.40;;;;;;4819968;29;20039;-70
2021/07/25 02:21:53;;;;;;;14.63;12.60;;;537.90;2406.40;;;;;;4820542;29;20521;-70
2021/07/25 02:24:20;;;;;;;15.65;13.13;;;537.90;2406.40;;;;;;4820211;29;20035;-70
2021/07/25 02:26:46;;;;;;;17.75;13.68;;;537.90;2406.40;;;;;;4820167;29;20030;-70
2021/07/25 02:29:12;;;;;;;16.40;12.50;;;538.00;2406.40;;;;;;4814861;29;20035;-70
2021/07/25 02:31:38;;;;;;;15.85;12.55;;;538.00;2406.40;;;;;;4837452;29;20025;-70
2021/07/25 02:34:04;;;;;;;16.88;13.20;;;538.00;2406.40;;;;;;4829666;29;20494;-70
2021/07/25 02:36:29;;;;;;;15.77;12.23;;;538.00;2406.40;;;;;;4825486;29;20038;-70
2021/07/25 02:38:55;;;;;;;15.25;12.65;;;538.10;2406.40;;;;;;4839961;29;20548;-70
2021/07/25 02:41:21;;;;;;;15.73;12.60;;;538.10;2406.40;;;;;;4827374;29;20035;-69
2021/07/25 02:43:47;;;;;;;19.08;12.95;;;538.10;2406.40;;;;;;4825159;29;20018;-70
2021/07/25 02:46:13;;;;;;;14.77;11.98;;;538.10;2406.40;;;;;;4834185;29;20030;-70
2021/07/25 02:48:39;;;;;;;19.92;12.77;;;538.20;2406.40;;;;;;4840338;29;20108;-70
2021/07/25 02:51:04;;;;;;;14.77;12.82;;;538.20;2406.40;;;;;;4843027;29;20034;-70
2021/07/25 02:53:30;;;;;;;17.08;13.00;;;538.20;2406.40;;;;;;4843537;29;20033;-70
2021/07/25 02:55:56;;;;;;;16.95;12.55;;;538.10;2406.40;;;;;;4828360;29;20458;-70
2021/07/25 02:58:22;;;;;;;15.18;13.45;;;538.10;2406.40;;;;;;4824858;29;20038;-70
2021/07/25 03:00:48;;;;;;;15.63;12.35;;;538.10;2406.40;;;;;;4817921;29;20023;-70
2021/07/25 03:03:14;;;;;;;18.52;13.98;;;538.10;2406.40;;;;;;4817037;29;20034;-70
2021/07/25 03:05:39;;;;;;;15.15;11.90;;;538.20;2406.40;;;;;;4823740;29;20033;-70
2021/07/25 03:08:05;;;;;;;15.73;12.30;;;538.10;2406.40;;;;;;4823601;29;20479;-70
2021/07/25 03:10:31;;;;;;;17.52;12.77;;;538.20;2406.40;;;;;;4822372;29;20041;-70
2021/07/25 03:12:57;;;;;;;18.00;13.32;;;538.10;2406.40;;;;;;4822013;29;20022;-70
2021/07/25 03:15:23;;;;;;;16.48;12.82;;;538.10;2406.40;;;;;;4822849;29;20190;-70
2021/07/25 03:17:48;;;;;;;17.83;13.48;;;538.10;2406.40;;;;;;4811874;29;20029;-70
2021/07/25 03:20:15;;;;;;;19.70;14.18;;;538.10;2406.40;;;;;;4823989;29;20046;-70
2021/07/25 03:22:41;;;;;;;14.98;13.38;;;538.20;2406.40;;;;;;4819248;29;20026;-70
2021/07/25 03:25:07;;;;;;;19.02;14.05;;;538.20;2406.40;;;;;;4822595;29;20057;-70
2021/07/25 03:27:33;;;;;;;18.17;13.50;;;538.10;2406.40;;;;;;4823221;29;20033;-70
2021/07/25 03:29:59;;;;;;;16.98;13.80;;;538.00;2406.40;;;;;;4823827;29;20030;-70
2021/07/25 03:32:25;;;;;;;16.73;13.65;;;538.00;2406.40;;;;;;4823290;29;20039;-70
2021/07/25 03:34:52;;;;;;;21.92;14.65;;;538.00;2406.40;;;;;;4836253;29;20104;-71
2021/07/25 03:37:18;;;;;;;15.75;14.02;;;538.00;2406.40;;;;;;4826322;29;20100;-70
2021/07/25 03:39:46;;;;;;;19.55;15.38;;;538.00;2406.40;;;;;;4820428;29;20031;-70
2021/07/25 03:42:13;;;;;;;17.73;14.23;;;538.00;2406.40;;;;;;4823252;29;20445;-71
2021/07/25 03:44:39;;;;;;;15.80;13.43;;;538.10;2406.40;;;;;;4828569;29;20553;-69
2021/07/25 03:47:05;;;;;;;18.40;13.38;;;538.10;2406.40;;;;;;4823215;29;20078;-69
2021/07/25 03:49:31;;;;;;;14.85;12.82;;;538.20;2406.40;;;;;;4822623;29;20102;-69
2021/07/25 03:51:58;;;;;;;16.38;12.73;;;538.20;2406.40;;;;;;4822423;29;20047;-70
2021/07/25 03:54:23;;;;;;;17.83;13.05;;;538.30;2406.40;;;;;;4822701;29;20471;-69
2021/07/25 03:56:49;;;;;;;14.13;12.25;;;538.40;2406.40;;;;;;4821716;29;20038;-70
2021/07/25 03:59:15;;;;;;;17.13;12.68;;;538.50;2406.40;;;;;;4836418;29;20038;-70
2021/07/25 04:01:41;;;;;;;13.48;11.88;;;563.20;2432.00;;;;;;4838921;29;20086;-70
2021/07/25 04:04:07;;;;;;;16.67;12.57;;;563.20;2432.00;;;;;;4830240;29;20034;-70
2021/07/25 04:06:33;;;;;;;16.13;12.90;;;563.40;2432.00;;;;;;4822302;29;20410;-70
2021/07/25 04:08:59;;;;;;;15.30;12.32;;;563.40;2432.00;;;;;;4822897;29;20030;-69
2021/07/25 04:11:25;;;;;;;14.50;11.90;;;563.50;2432.00;;;;;;4814720;29;20039;-69
2021/07/25 04:13:50;;;;;;;14.25;12.23;;;563.60;2432.00;;;;;;4840739;29;20029;-69
2021/07/25 04:16:17;;;;;;;13.23;11.73;;;563.60;2432.00;;;;;;4825960;29;20375;-70
2021/07/25 04:18:43;;;;;;;19.70;12.85;;;563.70;2432.00;;;;;;4836691;29;20052;-69
2021/07/25 04:21:09;;;;;;;15.77;12.25;;;563.80;2432.00;;;;;;4822090;29;20502;-69
2021/07/25 04:23:37;;;;;;;12.73;11.02;;;563.80;2432.00;;;;;;4827998;29;20103;-69
2021/07/25 04:26:03;;;;;;;13.05;10.75;;;563.80;2432.00;;;;;;4822401;29;20097;-70
2021/07/25 04:28:29;;;;;;;14.40;12.90;;;563.90;2432.00;;;;;;4821887;29;20031;-69
2021/07/25 04:30:55;;;;;;;14.00;11.00;;;564.00;2432.00;;;;;;4832964;29;20094;-69
2021/07/25 04:33:21;;;;;;;15.30;11.40;;;564.10;2432.00;;;;;;4837606;29;20030;-70
2021/07/25 04:35:47;;;;;;;14.52;11.82;;;564.10;2432.00;;;;;;4822919;29;20031;-71
2021/07/25 04:38:13;;;;;;;13.40;12.02;;;564.10;2432.00;;;;;;4823935;29;20471;-71
2021/07/25 04:40:43;;;;;;;15.80;13.00;;;564.10;2432.00;;;;;;4834390;29;20042;-70
2021/07/25 04:43:13;;;;;;;17.10;12.38;;;564.10;2432.00;;;;;;4835419;29;20030;-70
2021/07/25 04:46:02;;;;;;;15.10;12.82;;;564.10;2432.00;;;;;;4821971;29;20090;-70
2021/07/25 04:48:47;;;;;;;16.83;12.10;;;588.80;2432.00;;;;;;4836989;29;20117;-70
2021/07/25 04:51:16;;;;;;;15.02;11.98;;;588.90;2432.00;;;;;;4832437;29;20860;-70
2021/07/25 04:53:42;;;;;;;14.50;12.57;;;589.20;2432.00;;;;;;4837389;29;20086;-70
2021/07/25 04:56:11;;;;;;;13.20;10.90;;;589.50;2432.00;;;;;;4840729;29;20030;-70
2021/07/25 04:58:47;;;;;;;12.98;10.60;;;589.70;2432.00;;;;;;4838732;29;20041;-70
2021/07/25 05:01:14;;;;;;;;;;;614.40;2432.00;;;;;;4840903;29;20061;-70
2021/07/25 05:03:41;;;;;;;13.55;11.23;;;614.60;2432.00;;;;;;4813538;29;19913;-70
2021/07/25 05:06:13;;;;;;;14.77;11.25;;;614.80;2432.00;;;;;;4820000;29;20073;-70
2021/07/25 05:08:39;;;;;;;14.57;12.25;;;614.90;2432.00;;;;;;4822108;29;20030;-70
2021/07/25 05:11:17;;;;;;;13.95;12.05;;;615.10;2432.00;;;;;;4817574;29;20536;-70
2021/07/25 05:13:49;;;;;;;13.43;11.73;;;640.00;2432.00;;;;;;4816471;29;20030;-70
2021/07/25 05:16:31;;;;;;;15.18;10.93;;;640.20;2432.00;;;;;;4821546;29;20589;-70
2021/07/25 05:19:40;;;;;;;13.70;11.40;;;640.30;2432.00;;;;;;4821057;29;20046;-70
2021/07/25 05:22:24;;;;;;;14.82;11.75;;;640.50;2432.00;;;;;;4819043;29;20065;-70
2021/07/25 05:24:50;;;;;;;12.23;10.98;;;665.60;2432.00;;;;;;4830271;29;20035;-70
2021/07/25 05:27:22;;;;;;;11.32;9.75;;;665.90;2432.00;;;;;;4812344;29;20047;-70
2021/07/25 05:29:50;;;;;;;11.82;10.38;;;666.00;2432.00;;;;;;4810306;29;20069;-70
2021/07/25 05:32:16;;;;;;;12.82;10.18;;;666.10;2432.00;;;;;;4821580;29;20506;-71
2021/07/25 05:34:42;;;;;;;11.10;9.88;;;666.40;2432.00;;;;;;4812744;29;20046;-71
2021/07/25 05:37:08;;;;;;;15.30;9.52;;;666.40;2432.00;;;;;;4813268;29;20084;-71
2021/07/25 05:39:34;;;;;;;12.25;9.57;;;666.50;2432.00;;;;;;4821709;29;20826;-71
2021/07/25 05:41:59;;;;;;;11.75;8.88;;;691.20;2432.00;;;;;;4821371;29;20040;-71
2021/07/25 05:44:26;;;;;;;12.05;9.18;;;666.40;2432.00;;;;;;4833434;29;20048;-71
2021/07/25 05:46:52;;;;;;;13.38;9.60;;;666.50;2432.00;;;;;;4824256;29;20022;-71
2021/07/25 05:49:17;;;;;;;11.38;9.68;;;666.30;2432.00;;;;;;4827918;29;20045;-71
2021/07/25 05:51:43;;;;;;;13.13;9.45;;;666.10;2432.00;;;;;;4821871;29;20042;-71
2021/07/25 05:54:09;;;;;;;10.60;9.40;;;666.10;2432.00;;;;;;4817031;29;20036;-71
2021/07/25 05:56:34;;;;;;;19.10;10.25;;;666.10;2432.00;;;;;;4820742;29;20033;-70
2021/07/25 05:59:00;;;;;;;10.35;8.68;;;666.10;2432.00;;;;;;4821830;29;20026;-71
2021/07/25 06:01:26;;;;;;;14.27;9.60;;;666.10;2432.00;;;;;;4806929;29;20058;-71
2021/07/25 06:03:52;;;;;;;11.75;9.07;;;666.10;2432.00;;;;;;4818577;29;20034;-70
2021/07/25 06:06:17;;;;;;;13.60;9.32;;;666.00;2432.00;;;;;;4821021;29;20042;-71
2021/07/25 06:08:43;;;;;;;14.40;9.85;;;665.90;2432.00;;;;;;4821637;29;20034;-71
2021/07/25 06:11:09;;;;;;;11.23;9.35;;;665.80;2432.00;;;;;;4817030;29;20027;-71
2021/07/25 06:13:34;;;;;;;13.85;10.43;;;665.60;2432.00;;;;;;4816791;29;20119;-71
2021/07/25 06:16:00;;;;;;;11.07;8.88;;;665.70;2432.00;;;;;;4821244;29;20041;-71
2021/07/25 06:18:26;;;;;;;15.27;11.27;;;665.70;2432.00;;;;;;4833508;29;20065;-71
2021/07/25 06:20:52;;;;;;;11.00;9.30;;;640.90;2432.00;;;;;;4820369;29;20043;-71
2021/07/25 06:23:17;;;;;;;10.90;9.80;;;665.60;2432.00;;;;;;4831536;29;20050;-71
2021/07/25 06:25:43;;;;;;;15.20;10.45;;;640.90;2432.00;;;;;;4820104;29;20455;-71
2021/07/25 06:28:09;;;;;;;12.82;10.13;;;665.70;2432.00;;;;;;4824030;29;20062;-71
2021/07/25 06:30:35;;;;;;;11.73;9.10;;;665.70;2432.00;;;;;;4818733;29;20030;-71
2021/07/25 06:33:08;;;;;;;13.02;9.95;;;666.10;2432.00;;;;;;4831579;29;20047;-71
2021/07/25 06:35:39;;;;;;;17.23;10.80;;;666.50;2432.00;;;;;;4835366;29;20048;-71
2021/07/25 06:38:08;;;;;;;11.95;10.75;;;691.50;2432.00;;;;;;4827661;29;20117;-71
2021/07/25 06:40:35;;;;;;;13.02;10.05;;;691.90;2432.00;;;;;;4820294;29;20038;-71
2021/07/25 06:43:02;;;;;;;15.60;10.13;;;716.90;2432.00;;;;;;4815338;29;20113;-71
2021/07/25 06:45:30;;;;;;;11.55;9.43;;;717.20;2432.00;;;;;;4823100;29;20109;-71
2021/07/25 06:47:55;;;;;;;13.98;9.98;;;717.50;2432.00;;;;;;4830134;29;20113;-71
2021/07/25 06:50:24;;;;;;;17.75;9.48;;;742.40;2432.00;;;;;;4824809;29;20122;-71
2021/07/25 06:52:51;;;;;;;12.25;9.82;;;742.70;2432.00;;;;;;4830855;29;20026;-71
2021/07/25 06:55:19;;;;;;;14.30;9.43;;;743.00;2432.00;;;;;;4829067;29;20026;-71
2021/07/25 06:57:45;;;;;;;15.95;9.80;;;743.20;2406.40;;;;;;4828512;29;20026;-71
2021/07/25 07:00:11;;;;;;;13.27;9.13;;;768.10;2355.20;;;;;;4830877;29;20493;-71
2021/07/25 07:02:54;;;;;;;10.18;9.10;;;768.20;2355.20;;;;;;4822646;29;20450;-71
2021/07/25 07:05:24;;;;;;;10.60;8.38;;;768.20;2329.60;;;;;;4820346;29;20030;-70
2021/07/25 07:07:52;;;;;;;16.52;8.50;;;768.10;2329.60;;;;;;4820868;29;20027;-70
2021/07/25 07:10:26;;;;;;;10.85;7.85;;;768.20;2304.00;;;;;;4821215;29;20018;-71
2021/07/25 07:12:54;;;;;;;14.52;8.68;;;743.10;2278.40;;;;;;4819644;29;20360;-71
2021/07/25 07:15:21;;;;;;;9.93;7.68;;;768.00;2252.80;;;;;;4821007;29;20026;-71
2021/07/25 07:17:52;;;;;;;15.10;8.23;;;768.20;2201.60;;;;;;4815052;29;20479;-72
2021/07/25 07:20:18;;;;;;;13.98;8.57;;;768.30;2201.60;;;;;;4817560;29;20828;-72
2021/07/25 07:22:58;;;;;;;15.75;8.57;;;768.50;2150.40;;;;;;4820458;29;20039;-72
2021/07/25 07:25:29;;;;;;;13.65;8.27;;;768.30;2176.00;;;;;;4819813;29;20099;-72
2021/07/25 07:27:55;;;;;;;14.73;8.05;;;768.30;2150.40;;;;;;4820856;29;20427;-72
2021/07/25 07:30:22;;;;;;;12.10;8.80;;;768.30;2150.40;;;;;;4831662;29;20117;-72
2021/07/25 07:32:47;;;;;;;9.52;7.85;;;768.50;2150.40;;;;;;4821171;29;20022;-72
2021/07/25 07:35:13;;;;;;;11.13;8.80;;;768.60;2099.20;;;;;;4837740;29;20513;-72
2021/07/25 07:37:39;;;;;;;12.15;7.90;;;768.60;2099.20;;;;;;4830754;29;20042;-71
2021/07/25 07:40:06;;;;;;;13.55;7.82;;;768.50;2124.80;;;;;;4825696;29;20034;-71
2021/07/25 07:42:31;;;;;;;11.75;8.02;;;768.70;2073.60;;;;;;4822350;29;20035;-71
2021/07/25 07:44:57;;;;;;;14.38;8.32;;;793.60;2124.80;;;;;;4823525;29;20045;-71
2021/07/25 07:47:23;;;;;;;12.05;8.10;;;793.90;2099.20;;;;;;4823494;29;20034;-71
2021/07/25 07:49:50;;;;;;;14.35;8.45;;;794.20;2073.60;;;;;;4823893;29;20035;-71
2021/07/25 07:52:16;;;;;;;9.30;7.65;;;794.00;2048.00;;;;;;4837901;29;20470;-72
2021/07/25 07:54:41;;;;;;;11.73;7.57;;;793.80;2048.00;;;;;;4833917;29;20039;-71
2021/07/25 07:57:07;;;;;;;10.02;8.18;;;793.80;2048.00;;;;;;4832214;29;20437;-71
2021/07/25 07:59:33;;;;;;;13.27;9.02;;;793.90;2048.00;;;;;;4835868;29;20490;-71
2021/07/25 08:01:59;;;;;;;14.52;8.82;;;794.10;2022.40;;;;;;4823918;29;20069;-71
2021/07/25 08:04:25;;;;;;;14.35;8.77;;;794.20;2048.00;;;;;;4821516;29;20117;-71
2021/07/25 08:06:51;;;;;;;15.32;7.80;;;819.20;2022.40;;;;;;4820915;29;20449;-71
2021/07/25 08:09:17;;;;;;;17.65;8.38;;;819.30;1996.80;;;;;;4822643;29;20027;-71
2021/07/25 08:11:43;;;;;;;14.50;8.93;;;819.50;1996.80;;;;;;4816810;29;20023;-71
2021/07/25 08:14:19;;;;;;;14.18;9.52;;;819.80;1945.60;;;;;;4827381;29;20113;-71
2021/07/25 08:16:45;;;;;;;;;;;820.00;1945.60;;;;;;4834534;29;20065;-71
2021/07/25 08:19:10;;;;;;;;;;;820.10;1920.00;;;;;;4826490;29;19951;-72
2021/07/25 08:21:39;;;;;;;14.07;7.82;;;820.00;1920.00;;;;;;4814792;29;19913;-71
2021/07/25 08:24:04;;;;;;;8.98;8.07;;;844.80;1945.60;;;;;;4823457;29;20038;-71
2021/07/25 08:26:30;;;;;;;12.40;7.60;;;844.80;1920.00;;;;;;4819480;29;20030;-71
2021/07/25 08:28:56;;;;;;;9.63;8.63;;;845.20;1920.00;;;;;;4813609;29;20431;-72
2021/07/25 08:31:22;;;;;;;10.57;7.90;;;845.50;1868.80;;;;;;4822774;29;20023;-71
2021/07/25 08:33:48;;;;;;;12.40;8.27;;;845.50;1868.80;;;;;;4822869;29;20030;-71
2021/07/25 08:36:13;;;;;;;11.95;8.57;;;845.50;1868.80;;;;;;4828834;29;20036;-72
2021/07/25 08:38:39;;;;;;;9.85;7.30;;;870.40;1868.80;;;;;;4841358;29;20030;-71
2021/07/25 08:41:12;;;;;;;11.32;8.27;;;870.50;1792.00;;;;;;4841196;29;20452;-71
2021/07/25 08:43:44;;;;;;;10.70;9.57;;;870.60;1792.00;;;;;;4840376;29;20057;-71
2021/07/25 08:46:19;;;;;;;8.77;6.95;;;870.60;1792.00;;;;;;4837788;29;20112;-71
2021/07/25 08:48:50;;;;;;;15.45;8.27;;;870.90;1766.40;;;;;;4824127;29;20057;-71
2021/07/25 08:51:25;;;;;;;16.52;8.10;;;871.20;1740.80;;;;;;4822296;29;20042;-71
2021/07/25 08:54:11;;;;;;;11.00;7.63;;;896.10;1715.20;;;;;;4819902;29;20062;-71
2021/07/25 08:56:37;;;;;;;8.57;7.68;;;896.20;1689.60;;;;;;4816773;29;20054;-71
2021/07/25 08:59:05;;;;;;;11.88;7.80;;;896.20;1689.60;;;;;;4822706;29;20019;-71
2021/07/25 09:01:36;;;;;;;11.10;7.25;;;896.20;1664.00;;;;;;4830939;29;20825;-71
2021/07/25 09:04:03;;;;;;;8.30;7.25;;;896.30;1638.40;;;;;;4822885;29;20117;-71
2021/07/25 09:06:43;;;;;;;11.85;8.00;;;896.40;1612.80;;;;;;4822400;29;20069;-71
2021/07/25 09:09:09;;;;;;;11.18;7.65;;;896.50;1612.80;;;;;;4821916;29;20027;-71
2021/07/25 09:11:36;;;;;;;8.80;7.05;;;896.90;1587.20;;;;;;4824440;29;20029;-70
2021/07/25 09:14:05;;;;;;;9.70;7.13;;;896.70;1587.20;;;;;;4830507;29;20034;-71
2021/07/25 09:16:34;;;;;;;10.82;7.55;;;896.30;1587.20;;;;;;4835992;29;20516;-70
2021/07/25 09:19:01;;;;;;;9.60;7.07;;;896.30;1561.60;;;;;;4832429;29;20058;-70
2021/07/25 09:21:44;;;;;;;9.23;7.93;;;896.40;1561.60;;;;;;4834253;29;20163;-70
2021/07/25 09:24:36;;;;;;;11.10;7.47;;;896.50;1561.60;;;;;;4835235;29;20433;-71
2021/07/25 09:27:06;;;;;;;10.05;7.93;;;896.50;1536.00;;;;;;4826418;29;20066;-70
2021/07/25 09:29:36;;;;;;;12.90;7.45;;;896.70;1536.00;;;;;;4835047;29;20129;-70
2021/07/25 09:32:13;;;;;;;15.90;7.53;;;896.60;1536.00;;;;;;4838564;29;20078;-70
2021/07/25 09:34:44;;;;;;;11.90;7.53;;;896.60;1536.00;;;;;;4839355;29;20036;-70
2021/07/25 09:37:19;;;;;;;13.18;7.45;;;896.90;1536.00;;;;;;4838295;29;20065;-70
2021/07/25 09:39:55;;;;;;;12.05;8.15;;;896.70;1536.00;;;;;;4837528;29;20036;-70
2021/07/25 09:42:29;;;;;;;8.98;7.15;;;921.60;1587.20;;;;;;4836981;29;20029;-71
2021/07/25 09:45:00;;;;;;;10.65;7.90;;;921.60;1561.60;;;;;;4835371;29;20038;-71
2021/07/25 09:47:37;;;;;;;8.32;7.53;;;922.10;1561.60;;;;;;4817910;29;20045;-71
2021/07/25 09:50:06;;;;;;;8.90;7.38;;;922.40;1536.00;;;;;;4835857;29;20083;-71
2021/07/25 09:52:37;;;;;;;9.00;8.10;;;947.30;1510.40;;;;;;4835076;29;20046;-71
2021/07/25 09:55:07;;;;;;;10.50;7.30;;;947.60;1510.40;;;;;;4834942;29;20026;-70
2021/07/25 09:57:37;;;;;;;10.95;7.55;;;947.90;1484.80;;;;;;4833925;29;20026;-71
2021/07/25 10:00:08;;;;;;;10.95;7.18;;;922.50;1510.40;;;;;;4837783;29;20459;-70
2021/07/25 10:02:43;;;;;;;12.63;8.05;;;947.20;1510.40;;;;;;4836150;29;20086;-70
2021/07/25 10:05:16;;;;;;;10.80;9.18;;;922.40;1536.00;;;;;;4838626;29;20037;-71
2021/07/25 10:07:44;;;;;;;8.73;7.70;;;947.30;1484.80;;;;;;4837635;29;20042;-71
2021/07/25 10:10:13;;;;;;;10.07;7.75;;;947.60;1484.80;;;;;;4836512;29;20021;-70
2021/07/25 10:12:40;;;;;;;9.63;7.93;;;947.70;1484.80;;;;;;4835010;29;20022;-71
2021/07/25 10:15:11;;;;;;;12.23;8.20;;;947.70;1510.40;;;;;;4828830;29;20038;-71
2021/07/25 10:17:39;;;;;;;11.70;7.72;;;947.70;1484.80;;;;;;4836221;29;20019;-71
2021/07/25 10:20:10;;;;;;;13.23;8.27;;;947.60;1484.80;;;;;;4837579;29;20061;-71
2021/07/25 10:22:37;;;;;;;12.98;8.35;;;947.90;1484.80;;;;;;4833628;29;20126;-71
2021/07/25 10:25:06;;;;;;;11.70;9.20;;;972.80;1459.20;;;;;;4839014;29;20026;-71
2021/07/25 10:27:33;;;;;;;10.73;8.27;;;972.90;1459.20;;;;;;4834243;29;20022;-71
2021/07/25 10:30:07;;;;;;;9.35;7.28;;;973.20;1459.20;;;;;;4829034;29;20027;-70
2021/07/25 10:32:36;;;;;;;11.00;7.97;;;973.00;1433.60;;;;;;4836317;29;20030;-70
2021/07/25 10:35:04;;;;;;;11.00;7.65;;;973.10;1459.20;;;;;;4822154;29;20269;-72
2021/07/25 10:37:32;;;;;;;10.02;7.25;;;973.10;1459.20;;;;;;4826338;29;20022;-72
2021/07/25 10:40:00;;;;;;;9.05;8.02;;;973.40;1433.60;;;;;;4833879;29;20038;-72
2021/07/25 10:42:28;;;;;;;8.68;7.60;;;973.40;1433.60;;;;;;4834414;29;20552;-72
2021/07/25 10:44:54;;;;;;;14.50;7.88;;;973.70;1408.00;;;;;;4833905;29;20033;-71
2021/07/25 10:47:23;;;;;;;12.20;7.97;;;973.60;1408.00;;;;;;4834556;29;20041;-72
2021/07/25 10:50:17;;;;;;;10.35;7.57;;;998.40;1433.60;;;;;;4834510;29;20034;-72
2021/07/25 10:52:59;;;;;;;10.07;8.40;;;998.40;1433.60;;;;;;4833673;29;20391;-72
2021/07/25 10:55:38;;;;;;;11.35;7.85;;;998.90;1382.40;;;;;;4831717;29;20046;-73
2021/07/25 10:58:18;;;;;;;10.48;7.32;;;998.90;1356.80;;;;;;4827652;29;20034;-72
2021/07/25 11:00:53;;;;;;;10.68;8.00;;;998.90;1356.80;;;;;;4832631;29;20034;-72
2021/07/25 11:03:24;;;;;;;11.70;7.68;;;999.10;1356.80;;;;;;4834906;29;20676;-72
2021/07/25 11:05:59;;;;;;;11.18;7.90;;;999.10;1331.20;;;;;;4831569;29;20474;-72
2021/07/25 11:08:37;;;;;;;11.52;8.43;;;999.20;1356.80;;;;;;4839453;29;20386;-72
2021/07/25 11:11:39;;;;;;;13.05;8.52;;;999.10;1356.80;;;;;;4832983;29;20090;-72
2021/07/25 11:14:07;;;;;;;8.88;7.82;;;999.20;1356.80;;;;;;4834059;29;20042;-72
2021/07/25 11:16:32;;;;;;;12.52;8.00;;;999.30;1356.80;;;;;;4838094;29;20078;-72
2021/07/25 11:19:00;;;;;;;12.40;8.05;;;999.20;1356.80;;;;;;4834138;29;20145;-72
2021/07/25 11:21:39;;;;;;;8.38;7.57;;;999.00;1356.80;;;;;;4835350;29;20037;-71
2021/07/25 11:24:34;;;;;;;15.50;9.18;;;999.20;1356.80;;;;;;4840726;29;20101;-72
2021/07/25 11:27:04;;;;;;;9.77;7.93;;;1024.00;1331.20;;;;;;4826272;29;20058;-72
2021/07/25 11:29:33;;;;;;;18.42;10.20;;;1024.00;1331.20;;;;;;4834488;29;20039;-72
2021/07/25 11:32:00;;;;;;;9.77;7.47;;;999.20;1305.60;;;;;;4835721;29;20041;-72
2021/07/25 11:34:34;;;;;;;12.10;7.95;;;1024.00;1305.60;;;;;;4840961;29;20490;-72
2021/07/25 11:37:03;;;;;;;14.63;8.82;;;1024.10;1305.60;;;;;;4835298;29;20033;-72
2021/07/25 11:39:30;;;;;;;11.15;7.68;;;1024.10;1305.60;;;;;;4828407;29;20436;-72
2021/07/25 11:41:56;;;;;;;11.15;8.30;;;1024.00;1280.00;;;;;;4835005;29;20475;-72
2021/07/25 11:44:27;;;;;;;8.70;7.68;;;1024.10;1280.00;;;;;;4820887;29;20054;-73
2021/07/25 11:46:54;;;;;;;10.15;8.68;;;1024.10;1280.00;;;;;;4823216;29;20018;-72
2021/07/25 11:49:46;;;;;;;14.27;8.60;;;1024.20;1280.00;;;;;;4823154;29;20026;-72
2021/07/25 11:52:12;;;;;;;10.63;8.98;;;1024.40;1254.40;;;;;;4821788;29;20070;-72
2021/07/25 11:54:40;;;;;;;19.85;8.20;;;1024.60;1280.00;;;;;;4823210;29;20064;-72
2021/07/25 11:57:09;;;;;;;9.45;8.45;;;1024.60;1254.40;;;;;;4823753;29;20117;-72
2021/07/25 11:59:46;;;;;;;10.15;8.70;;;1024.60;1228.80;;;;;;4823561;29;20679;-71
2021/07/25 12:02:13;;;;;;;10.63;8.20;;;1024.60;1254.40;;;;;;4821069;29;20786;-71
2021/07/25 12:04:43;;;;;;;11.50;8.27;;;1049.60;1254.40;;;;;;4822242;29;20038;-71
2021/07/25 12:07:17;;;;;;;10.20;8.30;;;1050.30;1228.80;;;;;;4820989;29;20126;-72
2021/07/25 12:09:46;;;;;;;10.45;7.88;;;1050.40;1228.80;;;;;;4817285;29;20025;-72
2021/07/25 12:12:21;;;;;;;11.20;7.82;;;1050.40;1228.80;;;;;;4821095;29;20033;-71
2021/07/25 12:14:48;;;;;;;8.32;7.53;;;1050.20;1228.80;;;;;;4820793;29;20121;-72